Time;durP1;ratioP1;P1;durP2;ratioP2;P2;SDS_P1;SDS_P2;PMS_P1;PMS_P2;Temp;Humidity;BMP_temperature;BMP_pressure;BME280_temperature;BME280_humidity;BME280_pressure;Samples;Min_cycle;Max_cycle;Signal;HPM_P1;HPM_P2
2022/12/08 00:00:05;;;;;;;9.53;7.67;;;7.20;99.90;;;;;;5067242;28;20454;-31
2022/12/08 00:02:32;;;;;;;14.47;9.90;;;7.20;99.90;;;;;;5066671;28;20200;-31
2022/12/08 00:10:36;;;;;;;14.53;10.90;;;7.20;99.90;;;;;;5066842;28;20196;-31
2022/12/08 00:13:18;;;;;;;18.20;12.60;;;7.20;99.90;;;;;;5066225;28;20737;-31
2022/12/08 00:15:59;;;;;;;17.50;12.43;;;7.20;99.90;;;;;;5066810;28;20195;-31
2022/12/08 00:18:28;;;;;;;17.63;12.70;;;7.20;99.90;;;;;;5066005;28;20334;-31
2022/12/08 00:20:56;;;;;;;17.57;12.93;;;7.20;99.90;;;;;;5066559;28;20235;-31
2022/12/08 00:23:24;;;;;;;19.43;13.73;;;7.20;99.90;;;;;;5065495;28;20569;-31
2022/12/08 00:25:51;;;;;;;18.67;13.50;;;7.20;99.90;;;;;;5066563;28;20943;-31
2022/12/08 00:28:18;;;;;;;19.83;13.97;;;7.20;99.90;;;;;;5063732;28;20203;-31
2022/12/08 00:30:46;;;;;;;20.43;14.57;;;7.20;99.90;;;;;;5066811;28;20225;-31
2022/12/08 00:33:13;;;;;;;18.17;14.07;;;7.20;99.90;;;;;;5056815;28;20295;-31
2022/12/08 00:35:42;;;;;;;22.30;15.63;;;7.20;99.90;;;;;;5046319;28;20196;-31
2022/12/08 00:38:14;;;;;;;18.07;15.33;;;7.20;99.90;;;;;;5044810;28;20212;-31
2022/12/08 00:40:45;;;;;;;21.17;16.30;;;7.20;99.90;;;;;;5046452;28;20274;-31
2022/12/08 00:43:16;;;;;;;21.60;15.47;;;7.20;99.90;;;;;;5046849;28;20280;-31
2022/12/08 00:45:43;;;;;;;21.50;16.17;;;7.20;99.90;;;;;;5045884;28;20200;-31
2022/12/08 00:48:13;;;;;;;24.80;16.83;;;7.10;99.90;;;;;;5047346;28;20223;-31
2022/12/08 00:50:42;;;;;;;30.80;18.33;;;7.10;99.90;;;;;;5065583;28;20235;-31
2022/12/08 00:53:09;;;;;;;21.53;16.63;;;7.20;99.90;;;;;;5063661;28;20199;-31
2022/12/08 00:55:43;;;;;;;21.83;16.77;;;7.10;99.90;;;;;;5066134;28;20207;-31
2022/12/08 00:58:13;;;;;;;23.00;17.13;;;7.10;99.90;;;;;;5065052;28;20316;-31
2022/12/08 01:00:43;;;;;;;24.27;17.30;;;7.10;99.90;;;;;;5064398;28;20282;-31
2022/12/08 01:03:10;;;;;;;22.87;16.67;;;7.10;99.90;;;;;;5065321;28;20202;-31
2022/12/08 01:05:40;;;;;;;21.50;16.80;;;7.10;99.90;;;;;;5065621;28;20199;-31
2022/12/08 01:08:08;;;;;;;20.97;17.10;;;7.10;99.90;;;;;;5064935;28;20744;-31
2022/12/08 01:10:36;;;;;;;21.90;16.97;;;7.10;99.90;;;;;;5065519;28;20212;-31
2022/12/08 01:13:04;;;;;;;21.93;16.90;;;7.10;99.90;;;;;;5065654;28;20573;-31
2022/12/08 01:15:38;;;;;;;22.80;17.17;;;7.00;99.90;;;;;;5066104;28;20264;-31
2022/12/08 01:18:05;;;;;;;26.30;17.37;;;7.10;99.90;;;;;;5064454;28;20195;-31
2022/12/08 01:20:32;;;;;;;22.43;17.03;;;7.00;99.90;;;;;;5045591;28;20231;-31
2022/12/08 01:23:01;;;;;;;23.80;17.00;;;7.00;99.90;;;;;;5044671;28;20192;-31
2022/12/08 01:25:32;;;;;;;21.73;16.93;;;7.00;99.90;;;;;;5045622;28;20283;-31
2022/12/08 01:28:04;;;;;;;22.43;16.23;;;7.00;99.90;;;;;;5059871;28;20289;-31
2022/12/08 01:30:31;;;;;;;19.37;15.60;;;7.00;99.90;;;;;;5065779;28;20218;-31
2022/12/08 01:32:58;;;;;;;23.77;17.87;;;7.00;99.90;;;;;;5065455;28;20670;-31
2022/12/08 01:35:28;;;;;;;22.70;16.70;;;7.00;99.90;;;;;;5065565;28;20547;-31
2022/12/08 01:37:55;;;;;;;26.00;17.30;;;6.90;99.90;;;;;;5063249;28;20208;-31
2022/12/08 01:40:22;;;;;;;22.67;17.67;;;6.90;99.90;;;;;;5064435;28;20752;-31
2022/12/08 01:42:51;;;;;;;22.87;16.13;;;6.90;99.90;;;;;;5065149;28;20233;-31
2022/12/08 01:45:27;;;;;;;22.80;16.87;;;6.80;99.90;;;;;;5062861;28;20902;-31
2022/12/08 01:47:59;;;;;;;28.47;17.87;;;6.80;99.90;;;;;;5044883;28;20200;-31
2022/12/08 01:50:27;;;;;;;22.27;16.80;;;6.80;99.90;;;;;;5045254;28;20243;-31
2022/12/08 01:53:02;;;;;;;24.33;16.90;;;6.80;99.90;;;;;;5044121;28;20200;-31
2022/12/08 01:55:38;;;;;;;22.03;16.63;;;6.70;99.90;;;;;;5044943;28;20755;-31
2022/12/08 01:58:32;;;;;;;23.43;15.90;;;6.70;99.90;;;;;;5046388;28;20241;-31
2022/12/08 02:00:59;;;;;;;20.37;15.83;;;6.70;99.90;;;;;;5043632;28;20677;-31
2022/12/08 02:03:32;;;;;;;22.67;16.77;;;6.70;99.90;;;;;;5048085;28;20295;-31
2022/12/08 02:06:01;;;;;;;22.13;16.13;;;6.60;99.90;;;;;;5051850;28;20264;-31
2022/12/08 02:08:33;;;;;;;22.57;16.47;;;6.60;99.90;;;;;;5048782;28;20290;-31
2022/12/08 02:11:00;;;;;;;22.90;16.40;;;6.60;99.90;;;;;;5066367;28;20294;-31
2022/12/08 02:13:31;;;;;;;24.13;17.53;;;6.60;99.90;;;;;;5068596;28;20215;-31
2022/12/08 02:16:16;;;;;;;24.30;17.50;;;6.50;99.90;;;;;;5056873;28;20599;-31
2022/12/08 02:18:52;;;;;;;22.53;16.27;;;6.50;99.90;;;;;;5057814;28;20215;-31
2022/12/08 02:21:51;;;;;;;24.03;16.93;;;6.50;99.90;;;;;;5064144;28;20207;-30
2022/12/08 02:24:28;;;;;;;31.40;17.43;;;6.40;99.90;;;;;;5064784;28;20227;-31
2022/12/08 02:27:07;;;;;;;24.00;17.57;;;6.40;99.90;;;;;;5055362;28;20728;-31
2022/12/08 02:30:10;;;;;;;23.50;16.87;;;6.40;99.90;;;;;;5067293;28;20203;-30
2022/12/08 02:33:09;;;;;;;33.20;18.87;;;6.40;99.90;;;;;;5068751;28;20215;-30
2022/12/08 02:35:55;;;;;;;27.60;17.50;;;6.40;99.90;;;;;;5063459;28;20257;-30
2022/12/08 02:38:52;;;;;;;26.00;17.60;;;6.40;99.90;;;;;;5067659;28;20686;-31
2022/12/08 02:41:38;;;;;;;23.07;16.53;;;6.40;99.90;;;;;;5066788;28;20294;-31
2022/12/08 02:44:26;;;;;;;23.30;17.03;;;6.30;99.90;;;;;;5066718;28;20290;-31
2022/12/08 02:47:01;;;;;;;25.33;17.40;;;6.30;99.90;;;;;;5068813;28;20192;-30
2022/12/08 02:49:31;;;;;;;25.20;17.77;;;6.30;99.90;;;;;;5067646;28;20238;-30
2022/12/08 02:52:24;;;;;;;27.30;17.50;;;6.20;99.90;;;;;;5067055;28;20290;-30
2022/12/08 02:54:54;;;;;;;24.27;17.50;;;6.20;99.90;;;;;;5067013;28;20206;-31
2022/12/08 02:58:07;;;;;;;28.23;17.00;;;6.20;99.90;;;;;;5066472;28;20298;-31
2022/12/08 03:00:57;;;;;;;27.90;19.57;;;6.20;99.90;;;;;;5047470;28;20257;-30
2022/12/08 03:03:46;;;;;;;27.90;19.20;;;6.20;99.90;;;;;;5046489;28;20204;-31
2022/12/08 03:06:49;;;;;;;27.27;18.33;;;6.20;99.90;;;;;;5059655;28;20195;-30
2022/12/08 03:09:33;;;;;;;27.03;18.40;;;6.10;99.90;;;;;;5049076;28;20207;-31
2022/12/08 03:12:14;;;;;;;26.17;18.70;;;6.10;99.90;;;;;;5068162;28;20203;-30
2022/12/08 03:14:48;;;;;;;27.80;18.90;;;6.10;99.90;;;;;;5065513;28;20432;-30
2022/12/08 03:17:19;;;;;;;28.53;19.37;;;6.10;99.90;;;;;;5065413;28;20686;-30
2022/12/08 03:19:50;;;;;;;28.90;19.60;;;6.00;99.90;;;;;;5067695;28;20732;-30
2022/12/08 03:22:24;;;;;;;29.23;19.37;;;6.00;99.90;;;;;;5065786;28;20219;-30
2022/12/08 03:24:52;;;;;;;31.43;19.87;;;6.00;99.90;;;;;;5066687;28;20218;-30
2022/12/08 03:27:27;;;;;;;29.73;18.60;;;6.00;99.90;;;;;;5067406;28;20600;-30
2022/12/08 03:29:59;;;;;;;30.03;18.97;;;6.00;99.90;;;;;;5066084;28;20233;-30
2022/12/08 03:32:39;;;;;;;27.33;18.07;;;6.00;99.90;;;;;;5067319;28;20823;-31
2022/12/08 03:35:11;;;;;;;23.00;16.97;;;5.90;99.90;;;;;;5067477;28;20209;-31
2022/12/08 03:37:41;;;;;;;27.03;18.87;;;5.90;99.90;;;;;;5066706;28;20903;-30
2022/12/08 03:40:15;;;;;;;30.63;18.53;;;5.90;99.90;;;;;;5067209;28;20218;-30
2022/12/08 03:42:42;;;;;;;28.07;18.07;;;5.90;99.90;;;;;;5067169;28;20282;-30
2022/12/08 03:45:10;;;;;;;25.60;16.97;;;5.90;99.90;;;;;;5067648;28;20208;-30
2022/12/08 03:47:39;;;;;;;27.33;17.27;;;5.80;99.90;;;;;;5067496;28;20204;-31
2022/12/08 03:50:09;;;;;;;26.53;17.83;;;5.90;99.90;;;;;;5067174;28;20327;-30
2022/12/08 03:52:36;;;;;;;25.43;17.67;;;5.80;99.90;;;;;;5065486;28;20319;-30
2022/12/08 03:55:04;;;;;;;27.83;17.97;;;5.90;99.90;;;;;;5067113;28;20647;-31
2022/12/08 03:57:31;;;;;;;26.27;16.90;;;5.90;99.90;;;;;;5066589;28;20299;-31
2022/12/08 04:00:02;;;;;;;25.87;18.37;;;5.90;99.90;;;;;;5066714;28;20334;-30
2022/12/08 04:02:30;;;;;;;28.27;18.10;;;6.00;99.90;;;;;;5066145;28;20241;-32
2022/12/08 04:04:57;;;;;;;28.20;18.17;;;6.00;99.90;;;;;;5066537;28;20199;-33
2022/12/08 04:07:24;;;;;;;29.47;18.67;;;6.00;99.90;;;;;;5066033;28;20299;-31
2022/12/08 04:09:55;;;;;;;29.43;18.53;;;6.00;99.90;;;;;;5060849;28;20733;-31
2022/12/08 04:12:22;;;;;;;27.80;17.57;;;6.00;99.90;;;;;;5066020;28;20198;-31
2022/12/08 04:14:50;;;;;;;25.67;17.30;;;6.00;99.90;;;;;;5066158;28;20227;-31
2022/12/08 04:17:17;;;;;;;28.37;17.50;;;6.00;99.90;;;;;;5065906;28;20227;-31
2022/12/08 04:19:44;;;;;;;26.67;18.50;;;6.00;99.90;;;;;;5066038;28;20228;-31
2022/12/08 04:22:13;;;;;;;26.73;18.23;;;6.00;99.90;;;;;;5064807;28;20294;-31
2022/12/08 04:24:43;;;;;;;29.70;18.30;;;6.00;99.90;;;;;;5065610;28;20196;-31
2022/12/08 04:27:16;;;;;;;29.20;19.97;;;6.10;99.90;;;;;;5065943;28;20215;-31
2022/12/08 04:29:48;;;;;;;28.00;18.00;;;6.10;99.90;;;;;;5065717;28;20230;-30
2022/12/08 04:32:15;;;;;;;26.50;18.40;;;6.10;99.90;;;;;;5065958;28;20204;-30
2022/12/08 04:34:42;;;;;;;25.97;18.20;;;6.10;99.90;;;;;;5065116;28;20203;-30
2022/12/08 04:37:09;;;;;;;26.53;18.40;;;6.10;99.90;;;;;;5065685;28;20218;-30
2022/12/08 04:39:41;;;;;;;23.17;17.80;;;6.10;99.90;;;;;;5065240;28;20319;-30
2022/12/08 04:42:08;;;;;;;24.80;17.00;;;6.10;99.90;;;;;;5064284;28;20199;-30
2022/12/08 04:44:38;;;;;;;23.70;17.57;;;6.10;99.90;;;;;;5064324;28;20566;-30
2022/12/08 04:47:05;;;;;;;26.70;17.30;;;6.10;99.90;;;;;;5065991;28;20206;-30
2022/12/08 04:49:37;;;;;;;22.97;16.53;;;6.10;99.90;;;;;;5065117;28;20721;-31
2022/12/08 04:52:04;;;;;;;21.30;14.90;;;6.10;99.90;;;;;;5065427;28;20253;-30
2022/12/08 04:54:34;;;;;;;23.57;14.87;;;6.10;99.90;;;;;;5063181;28;20728;-30
2022/12/08 04:57:01;;;;;;;23.07;13.13;;;6.10;99.90;;;;;;5065872;28;20713;-30
2022/12/08 04:59:30;;;;;;;19.97;12.50;;;6.20;99.90;;;;;;5065473;28;20219;-30
2022/12/08 05:01:59;;;;;;;18.63;12.93;;;6.20;99.90;;;;;;5065938;28;20219;-30
2022/12/08 05:04:29;;;;;;;18.27;12.60;;;6.20;99.90;;;;;;5061126;28;20670;-30
2022/12/08 05:06:59;;;;;;;20.27;12.93;;;6.20;99.90;;;;;;5066127;28;20199;-31
2022/12/08 05:09:27;;;;;;;18.90;12.03;;;6.20;99.90;;;;;;5064628;28;20757;-31
2022/12/08 05:11:58;;;;;;;19.90;12.23;;;6.30;99.90;;;;;;5064135;28;20203;-30
2022/12/08 05:14:28;;;;;;;18.07;12.23;;;6.30;99.90;;;;;;5064242;28;20207;-30
2022/12/08 05:16:57;;;;;;;16.07;12.17;;;6.30;99.90;;;;;;5064312;28;20670;-30
2022/12/08 05:19:26;;;;;;;17.67;11.87;;;6.30;99.90;;;;;;5065259;28;20705;-30
2022/12/08 05:21:53;;;;;;;17.20;11.80;;;6.30;99.90;;;;;;5065145;28;20210;-30
2022/12/08 05:24:20;;;;;;;17.93;12.27;;;6.20;99.90;;;;;;5064632;28;20251;-31
2022/12/08 05:26:50;;;;;;;17.63;13.07;;;6.20;99.90;;;;;;5064721;28;20221;-30
2022/12/08 05:29:19;;;;;;;19.17;12.50;;;6.20;99.90;;;;;;5065335;28;20210;-30
2022/12/08 05:31:47;;;;;;;18.50;13.20;;;6.20;99.90;;;;;;5065232;28;21054;-30
2022/12/08 05:34:14;;;;;;;19.40;14.67;;;6.20;99.90;;;;;;5065430;28;20188;-30
2022/12/08 05:36:43;;;;;;;26.33;15.97;;;6.20;99.90;;;;;;5065368;28;20613;-30
2022/12/08 05:39:16;;;;;;;23.80;16.67;;;6.20;99.90;;;;;;5064450;28;20227;-30
2022/12/08 05:41:46;;;;;;;25.30;16.97;;;6.20;99.90;;;;;;5064850;28;20203;-30
2022/12/08 05:44:15;;;;;;;27.40;17.03;;;6.30;99.90;;;;;;5063226;28;20210;-30
2022/12/08 05:46:44;;;;;;;27.10;17.30;;;6.30;99.90;;;;;;5068890;28;20650;-30
2022/12/08 05:49:16;;;;;;;24.77;16.57;;;6.20;99.90;;;;;;5069135;28;20294;-31
2022/12/08 05:51:46;;;;;;;24.00;16.97;;;6.30;99.90;;;;;;5067635;28;20203;-30
2022/12/08 05:54:17;;;;;;;23.73;16.60;;;6.20;99.90;;;;;;5068991;28;20737;-30
2022/12/08 05:56:44;;;;;;;27.97;17.03;;;6.20;99.90;;;;;;5069804;28;20254;-30
2022/12/08 05:59:16;;;;;;;21.83;16.03;;;6.20;99.90;;;;;;5065411;28;20218;-30
2022/12/08 06:01:43;;;;;;;27.07;16.20;;;6.20;99.90;;;;;;5066093;28;20345;-30
2022/12/08 06:04:13;;;;;;;27.57;17.30;;;6.20;99.90;;;;;;5064234;28;20512;-30
2022/12/08 06:06:40;;;;;;;21.20;15.33;;;6.20;99.90;;;;;;5054464;28;20208;-30
2022/12/08 06:09:08;;;;;;;26.43;17.07;;;6.20;99.90;;;;;;5058883;28;20286;-30
2022/12/08 06:11:37;;;;;;;22.97;17.03;;;6.20;99.90;;;;;;5060285;28;20196;-30
2022/12/08 06:14:08;;;;;;;28.03;16.53;;;6.20;99.90;;;;;;5059367;28;20243;-32
2022/12/08 06:16:38;;;;;;;20.37;14.97;;;6.20;99.90;;;;;;5058953;28;20207;-31
2022/12/08 06:19:05;;;;;;;24.00;15.13;;;6.20;99.90;;;;;;5056875;28;20630;-31
2022/12/08 06:21:35;;;;;;;22.60;14.83;;;6.20;99.90;;;;;;5067586;28;20285;-31
2022/12/08 06:24:02;;;;;;;21.87;15.00;;;6.20;99.90;;;;;;5066446;28;20196;-31
2022/12/08 06:26:32;;;;;;;19.10;14.33;;;6.20;99.90;;;;;;5066319;28;20200;-31
2022/12/08 06:28:59;;;;;;;24.20;14.70;;;6.20;99.90;;;;;;5067561;28;20570;-31
2022/12/08 06:31:29;;;;;;;24.20;15.47;;;6.20;99.90;;;;;;5068229;28;20307;-31
2022/12/08 06:33:59;;;;;;;20.23;14.60;;;6.10;99.90;;;;;;5064904;28;20595;-31
2022/12/08 06:36:30;;;;;;;23.47;14.17;;;6.20;99.90;;;;;;5058025;28;20681;-31
2022/12/08 06:39:02;;;;;;;23.60;14.43;;;6.20;99.90;;;;;;5067015;28;20219;-31
2022/12/08 06:42:42;;;;;;;24.93;14.07;;;6.20;99.90;;;;;;5068074;28;20465;-31
2022/12/08 06:44:23;;;;;;;21.90;13.60;;;6.20;99.90;;;;;;5064945;28;20245;-31
2022/12/08 06:46:53;;;;;;;22.57;14.40;;;6.10;99.90;;;;;;5066918;28;20199;-31
2022/12/08 06:49:25;;;;;;;20.67;13.13;;;6.10;99.90;;;;;;5067190;28;20215;-31
2022/12/08 06:51:54;;;;;;;20.23;13.97;;;6.10;99.90;;;;;;5061741;28;20200;-31
2022/12/08 06:54:21;;;;;;;22.93;13.77;;;6.10;99.90;;;;;;5045223;28;20309;-31
2022/12/08 06:56:50;;;;;;;21.23;12.97;;;6.10;99.90;;;;;;5059980;28;20381;-32
2022/12/08 06:59:18;;;;;;;21.57;13.03;;;6.10;99.90;;;;;;5057765;28;20198;-33
2022/12/08 07:01:47;;;;;;;20.30;12.20;;;6.10;99.90;;;;;;5064456;28;20326;-32
2022/12/08 07:04:17;;;;;;;20.67;12.70;;;6.10;99.90;;;;;;5060861;28;20694;-30
2022/12/08 07:06:44;;;;;;;18.23;12.77;;;6.10;99.90;;;;;;5060719;28;20203;-32
2022/12/08 07:09:11;;;;;;;20.13;12.60;;;6.10;99.90;;;;;;5061217;28;20315;-32
2022/12/08 07:11:41;;;;;;;20.53;12.90;;;6.00;99.90;;;;;;5062744;28;20235;-33
2022/12/08 07:14:11;;;;;;;20.73;12.30;;;6.10;99.90;;;;;;5047442;28;20720;-33
2022/12/08 07:16:38;;;;;;;20.83;13.37;;;6.00;99.90;;;;;;5051455;28;20192;-32
2022/12/08 07:19:06;;;;;;;17.87;12.33;;;6.00;99.90;;;;;;5066149;28;20281;-32
2022/12/08 07:21:33;;;;;;;18.53;12.53;;;6.00;99.90;;;;;;5058165;28;20275;-32
2022/12/08 07:24:03;;;;;;;24.27;12.80;;;6.00;99.90;;;;;;5049620;28;20251;-32
2022/12/08 07:26:31;;;;;;;19.23;12.67;;;6.00;99.90;;;;;;5055631;28;20207;-32
2022/12/08 07:29:01;;;;;;;20.83;12.40;;;6.00;99.90;;;;;;5060474;28;20206;-32
2022/12/08 07:31:33;;;;;;;20.07;12.53;;;6.00;99.90;;;;;;5059212;28;20200;-32
2022/12/08 07:34:03;;;;;;;19.67;12.30;;;5.90;99.90;;;;;;5062294;28;20689;-33
2022/12/08 07:36:34;;;;;;;24.30;12.40;;;5.90;99.90;;;;;;5063211;28;20233;-32
2022/12/08 07:39:02;;;;;;;20.67;12.30;;;5.90;99.90;;;;;;5056053;28;20216;-32
2022/12/08 07:41:32;;;;;;;24.77;12.87;;;5.90;99.90;;;;;;5059728;28;20219;-33
2022/12/08 07:44:03;;;;;;;32.60;14.60;;;5.90;99.90;;;;;;5058137;28;20196;-32
2022/12/08 07:46:30;;;;;;;24.77;13.73;;;5.90;99.90;;;;;;5053877;28;20200;-32
2022/12/08 07:48:59;;;;;;;25.57;13.03;;;5.90;99.90;;;;;;5062911;28;20218;-32
2022/12/08 07:51:27;;;;;;;25.30;12.93;;;5.90;99.90;;;;;;5050255;28;20251;-32
2022/12/08 07:53:57;;;;;;;22.97;13.17;;;5.90;99.90;;;;;;5053151;28;20685;-32
2022/12/08 07:56:24;;;;;;;22.67;12.63;;;5.90;99.90;;;;;;5057129;28;20609;-32
2022/12/08 07:58:51;;;;;;;19.13;12.53;;;5.90;99.90;;;;;;5046313;28;20236;-32
2022/12/08 08:01:31;;;;;;;22.80;12.27;;;5.90;99.90;;;;;;5047881;28;20318;-32
2022/12/08 08:04:05;;;;;;;19.97;12.73;;;5.90;99.90;;;;;;5052263;28;20246;-32
2022/12/08 08:06:36;;;;;;;21.27;11.40;;;5.90;99.90;;;;;;5062444;28;20288;-32
2022/12/08 08:09:09;;;;;;;20.33;12.37;;;5.90;99.90;;;;;;5061824;28;20192;-32
2022/12/08 08:11:36;;;;;;;20.77;11.27;;;5.90;99.90;;;;;;5060862;28;20724;-32
2022/12/08 08:14:08;;;;;;;20.47;12.10;;;5.90;99.90;;;;;;5044364;28;20297;-32
2022/12/08 08:16:40;;;;;;;18.50;11.63;;;5.90;99.90;;;;;;5045903;28;20687;-32
2022/12/08 08:19:08;;;;;;;18.27;11.63;;;5.90;99.90;;;;;;5060289;28;20213;-32
2022/12/08 08:21:35;;;;;;;20.73;12.87;;;5.90;99.90;;;;;;5051682;28;20275;-32
2022/12/08 08:24:11;;;;;;;18.43;11.63;;;5.90;99.90;;;;;;5062201;28;20326;-32
2022/12/08 08:26:43;;;;;;;20.23;10.80;;;5.90;99.90;;;;;;5051034;28;20204;-32
2022/12/08 08:29:10;;;;;;;18.73;11.87;;;6.00;99.90;;;;;;5050739;28;20825;-32
2022/12/08 08:31:42;;;;;;;21.57;11.40;;;6.00;99.90;;;;;;5059052;28;20204;-32
2022/12/08 08:34:12;;;;;;;18.47;11.07;;;6.00;99.90;;;;;;5056029;28;20216;-32
2022/12/08 08:36:41;;;;;;;23.03;11.63;;;6.00;99.90;;;;;;5057005;28;20208;-32
2022/12/08 08:39:12;;;;;;;18.57;10.97;;;6.00;99.90;;;;;;5058951;28;20211;-32
2022/12/08 08:41:40;;;;;;;15.60;10.33;;;6.00;99.90;;;;;;5063005;28;20344;-32
2022/12/08 08:44:10;;;;;;;19.40;11.80;;;6.00;99.90;;;;;;5047079;28;20551;-32
2022/12/08 08:46:37;;;;;;;20.13;11.30;;;6.10;99.90;;;;;;5060002;28;20199;-32
2022/12/08 08:49:07;;;;;;;19.93;11.23;;;6.10;99.90;;;;;;5053844;28;20289;-32
2022/12/08 08:51:38;;;;;;;18.20;11.37;;;6.10;99.90;;;;;;5053044;28;20741;-32
2022/12/08 08:54:06;;;;;;;20.73;10.77;;;6.10;99.90;;;;;;5056958;28;20226;-32
2022/12/08 08:56:36;;;;;;;19.00;12.33;;;6.10;99.90;;;;;;5046020;28;20305;-30
2022/12/08 08:59:06;;;;;;;20.70;11.53;;;6.10;99.90;;;;;;5049789;28;20211;-31
2022/12/08 09:01:33;;;;;;;19.63;12.27;;;6.10;99.90;;;;;;5073012;28;20326;-31
2022/12/08 09:04:00;;;;;;;19.57;12.43;;;6.20;99.90;;;;;;5067566;28;20200;-31
2022/12/08 09:06:28;;;;;;;18.63;12.00;;;6.20;99.90;;;;;;5064067;28;20318;-32
2022/12/08 09:08:55;;;;;;;23.33;12.70;;;6.20;99.90;;;;;;5072544;28;20203;-32
2022/12/08 09:11:25;;;;;;;21.33;13.00;;;6.10;99.90;;;;;;5073794;28;20192;-32
2022/12/08 09:13:55;;;;;;;18.73;11.77;;;6.20;99.90;;;;;;5045133;28;20220;-31
2022/12/08 09:16:22;;;;;;;19.93;12.23;;;6.20;99.90;;;;;;5058645;28;20216;-31
2022/12/08 09:18:50;;;;;;;18.20;12.50;;;6.20;99.90;;;;;;5065073;28;20211;-31
2022/12/08 09:21:22;;;;;;;20.97;12.90;;;6.20;99.90;;;;;;5074617;28;20337;-30
2022/12/08 09:23:51;;;;;;;20.47;13.90;;;6.20;99.90;;;;;;5073993;28;20373;-31
2022/12/08 09:26:21;;;;;;;20.40;12.67;;;6.20;99.90;;;;;;5086227;28;20199;-30
2022/12/08 09:28:52;;;;;;;24.20;13.97;;;6.20;99.90;;;;;;5085206;28;20218;-32
2022/12/08 09:31:23;;;;;;;20.90;13.00;;;6.20;99.90;;;;;;5083529;28;20317;-33
2022/12/08 09:33:53;;;;;;;22.50;14.00;;;6.20;99.90;;;;;;5076071;28;20207;-33
2022/12/08 09:36:20;;;;;;;25.87;14.93;;;6.20;99.90;;;;;;5065179;28;20211;-33
2022/12/08 09:38:49;;;;;;;23.37;13.67;;;6.20;99.90;;;;;;5054906;28;20575;-33
2022/12/08 09:41:25;;;;;;;22.63;14.77;;;6.30;99.90;;;;;;5045103;28;20220;-33
2022/12/08 09:44:07;;;;;;;22.37;14.03;;;6.30;99.90;;;;;;5045155;28;20200;-31
2022/12/08 09:46:38;;;;;;;23.40;14.83;;;6.30;99.90;;;;;;5062099;28;20210;-31
2022/12/08 09:49:16;;;;;;;25.07;14.37;;;6.30;99.90;;;;;;5062054;28;20931;-31
2022/12/08 09:51:46;;;;;;;25.00;14.13;;;6.30;99.90;;;;;;5063427;28;20340;-31
2022/12/08 09:54:33;;;;;;;24.07;14.97;;;6.30;99.90;;;;;;5069634;28;20272;-31
2022/12/08 09:57:12;;;;;;;21.63;14.17;;;6.30;99.90;;;;;;5046065;28;20216;-32
2022/12/08 09:59:42;;;;;;;23.67;14.40;;;6.40;99.90;;;;;;5055254;28;20265;-32
2022/12/08 10:02:28;;;;;;;24.60;14.67;;;6.30;99.90;;;;;;5064427;28;20766;-31
2022/12/08 10:04:57;;;;;;;26.03;14.33;;;6.30;99.90;;;;;;5060083;28;20326;-31
2022/12/08 10:07:29;;;;;;;26.00;14.07;;;6.30;99.90;;;;;;5044720;28;20254;-31
2022/12/08 10:10:02;;;;;;;25.80;15.10;;;6.30;99.90;;;;;;5075543;28;20206;-31
2022/12/08 10:12:59;;;;;;;22.13;14.40;;;6.30;99.90;;;;;;5059237;28;20206;-31
2022/12/08 10:15:49;;;;;;;22.33;14.13;;;6.40;99.90;;;;;;5065051;28;20249;-32
2022/12/08 10:18:21;;;;;;;22.67;13.53;;;6.40;99.90;;;;;;5060795;28;20325;-31
2022/12/08 10:20:50;;;;;;;20.37;13.60;;;6.40;99.90;;;;;;5052910;28;20206;-31
2022/12/08 10:23:35;;;;;;;26.60;15.23;;;6.40;99.90;;;;;;5054976;28;20632;-31
2022/12/08 10:26:12;;;;;;;23.33;13.70;;;6.40;99.90;;;;;;5055490;28;20247;-31
2022/12/08 10:28:39;;;;;;;24.13;13.70;;;6.40;99.90;;;;;;5059855;28;20208;-31
2022/12/08 10:31:24;;;;;;;22.63;13.07;;;6.40;99.90;;;;;;5058369;28;20202;-31
2022/12/08 10:34:08;;;;;;;26.90;13.67;;;6.50;99.90;;;;;;5067053;28;20215;-31
2022/12/08 10:36:46;;;;;;;25.37;13.17;;;6.50;99.90;;;;;;5064381;28;20640;-32
2022/12/08 10:39:42;;;;;;;24.43;12.40;;;6.50;99.90;;;;;;5069209;28;20685;-31
2022/12/08 10:42:20;;;;;;;23.43;13.43;;;6.60;99.90;;;;;;5057443;28;20293;-31
2022/12/08 10:45:00;;;;;;;23.17;13.47;;;6.60;99.90;;;;;;5047752;28;20195;-32
2022/12/08 10:47:39;;;;;;;23.97;13.30;;;6.60;99.90;;;;;;5054872;28;20620;-31
2022/12/08 10:50:19;;;;;;;23.23;13.00;;;6.60;99.90;;;;;;5059703;28;20232;-31
2022/12/08 10:53:11;;;;;;;26.00;12.53;;;6.60;99.90;;;;;;5058340;28;20307;-31
2022/12/08 10:55:45;;;;;;;20.77;12.17;;;6.70;99.90;;;;;;5078297;28;20229;-31
2022/12/08 10:58:31;;;;;;;22.77;12.33;;;6.70;99.90;;;;;;5078903;28;20281;-32
2022/12/08 11:01:16;;;;;;;26.27;12.73;;;6.60;99.90;;;;;;5049173;28;20318;-32
2022/12/08 11:03:53;;;;;;;20.17;11.57;;;6.60;99.90;;;;;;5050447;28;20208;-32
2022/12/08 11:06:31;;;;;;;20.67;12.33;;;6.60;99.90;;;;;;5057784;28;20241;-32
2022/12/08 11:09:16;;;;;;;24.87;12.00;;;6.60;99.90;;;;;;5058828;28;20927;-32
2022/12/08 11:11:46;;;;;;;19.97;11.47;;;6.60;99.90;;;;;;5046796;28;20291;-32
2022/12/08 11:14:29;;;;;;;20.73;11.57;;;6.60;99.90;;;;;;5055525;28;20306;-32
2022/12/08 11:17:07;;;;;;;19.67;11.47;;;6.60;99.90;;;;;;5051123;28;20748;-32
2022/12/08 11:19:42;;;;;;;16.40;10.67;;;6.60;99.90;;;;;;5049486;28;20685;-33
2022/12/08 11:22:35;;;;;;;16.53;11.70;;;6.60;99.90;;;;;;5059182;28;20299;-32
2022/12/08 11:25:14;;;;;;;19.10;11.20;;;6.60;99.90;;;;;;5050404;28;20200;-32
2022/12/08 11:27:43;;;;;;;18.87;10.60;;;6.60;99.90;;;;;;5047680;28;20231;-32
2022/12/08 11:30:21;;;;;;;17.27;10.93;;;6.60;99.90;;;;;;5053421;28;20270;-32
2022/12/08 11:32:55;;;;;;;22.97;12.00;;;6.60;99.90;;;;;;5063949;28;20199;-32
2022/12/08 11:35:32;;;;;;;16.23;10.73;;;6.60;99.90;;;;;;5059885;28;20203;-33
2022/12/08 11:38:26;;;;;;;18.63;10.60;;;6.60;99.90;;;;;;5058087;28;20250;-32
2022/12/08 11:41:03;;;;;;;18.87;10.60;;;6.70;99.90;;;;;;5056708;28;20298;-32
2022/12/08 11:43:32;;;;;;;17.53;9.83;;;6.80;99.90;;;;;;5048388;28;20210;-32
2022/12/08 11:46:03;;;;;;;19.67;10.53;;;6.90;99.90;;;;;;5053452;28;20319;-32
2022/12/08 11:48:35;;;;;;;19.20;10.70;;;6.90;99.90;;;;;;5066631;28;20199;-32
2022/12/08 11:51:18;;;;;;;18.10;9.90;;;6.90;99.90;;;;;;5059785;28;20266;-33
2022/12/08 11:54:14;;;;;;;14.10;9.00;;;7.00;99.90;;;;;;5072276;28;20229;-32
2022/12/08 11:56:45;;;;;;;15.47;8.50;;;7.10;99.90;;;;;;5049140;28;20675;-32
2022/12/08 11:59:27;;;;;;;19.60;8.63;;;7.10;99.90;;;;;;5058560;28;20757;-33
2022/12/08 12:01:54;;;;;;;14.17;8.00;;;7.10;99.90;;;;;;5061671;28;20224;-32
2022/12/08 12:04:32;;;;;;;19.13;8.60;;;7.10;99.90;;;;;;5048826;28;20727;-31
2022/12/08 12:07:10;;;;;;;11.00;7.77;;;7.20;99.90;;;;;;5049058;28;20309;-30
2022/12/08 12:09:57;;;;;;;13.00;7.30;;;7.20;99.90;;;;;;5047784;28;20224;-32
2022/12/08 12:12:58;;;;;;;14.03;7.40;;;7.30;99.90;;;;;;5057752;28;20650;-32
2022/12/08 12:15:54;;;;;;;11.70;7.60;;;7.30;99.90;;;;;;5063009;28;20643;-32
2022/12/08 12:18:39;;;;;;;17.20;8.17;;;7.30;99.90;;;;;;5053609;28;20295;-32
2022/12/08 12:21:24;;;;;;;13.97;8.00;;;7.40;99.90;;;;;;5049116;28;20220;-32
2022/12/08 12:24:17;;;;;;;12.53;8.30;;;7.40;99.90;;;;;;5060787;28;20345;-32
2022/12/08 12:27:27;;;;;;;13.60;7.43;;;7.50;99.90;;;;;;5056027;28;20589;-32
2022/12/08 12:30:03;;;;;;;13.90;6.93;;;7.60;99.90;;;;;;5054805;28;20951;-32
2022/12/08 12:32:54;;;;;;;12.80;8.30;;;7.60;99.90;;;;;;5062063;28;20203;-32
2022/12/08 12:35:29;;;;;;;14.30;7.53;;;7.60;99.90;;;;;;5050834;28;20280;-32
2022/12/08 12:41:08;;;;;;;16.43;7.77;;;7.70;99.90;;;;;;5047184;28;20208;-32
2022/12/08 12:43:37;;;;;;;12.10;7.63;;;7.70;99.90;;;;;;5062940;28;20256;-33
2022/12/08 12:46:22;;;;;;;13.57;8.10;;;7.70;99.90;;;;;;5065685;28;20260;-33
2022/12/08 12:48:54;;;;;;;10.43;7.10;;;7.80;99.90;;;;;;5064130;28;20257;-33
2022/12/08 12:51:40;;;;;;;11.27;7.27;;;7.80;99.90;;;;;;5061832;28;20598;-33
2022/12/08 12:54:25;;;;;;;17.50;8.60;;;7.80;99.90;;;;;;5039515;28;20196;-33
2022/12/08 12:57:04;;;;;;;13.60;7.40;;;7.80;99.90;;;;;;5056966;28;20245;-33
2022/12/08 12:59:43;;;;;;;13.27;7.20;;;7.80;99.90;;;;;;5065535;28;20187;-33
2022/12/08 13:02:44;;;;;;;15.50;7.77;;;7.80;99.90;;;;;;5062436;28;20223;-33
2022/12/08 13:05:25;;;;;;;14.93;7.30;;;7.80;99.90;;;;;;5050156;28;20214;-33
2022/12/08 13:08:01;;;;;;;10.00;7.27;;;7.80;99.90;;;;;;5054509;28;20756;-33
2022/12/08 13:10:35;;;;;;;12.03;7.20;;;7.80;99.90;;;;;;5055033;28;20207;-33
2022/12/08 13:13:11;;;;;;;14.57;7.90;;;7.80;99.90;;;;;;5045108;28;20323;-33
2022/12/08 13:15:40;;;;;;;12.80;7.53;;;7.90;99.90;;;;;;5057935;28;20261;-33
2022/12/08 13:18:18;;;;;;;15.10;8.17;;;7.90;99.90;;;;;;5057400;28;20213;-33